Time;durP1;ratioP1;P1;durP2;ratioP2;P2;SDS_P1;SDS_P2;PMS_P1;PMS_P2;Temp;Humidity;BMP_temperature;BMP_pressure;BME280_temperature;BME280_humidity;BME280_pressure;Samples;Min_cycle;Max_cycle;Signal;HPM_P1;HPM_P2
2023/10/03 00:00:56;;;;;;;9.50;4.80;;;;;;;13.72;100.00;100392.56;104391;1270;69527;-65
2023/10/03 00:03:24;;;;;;;7.10;4.50;;;;;;;13.72;100.00;100394.70;104283;1254;71643;-65
2023/10/03 00:05:52;;;;;;;7.90;4.60;;;;;;;13.67;100.00;100393.29;104199;1254;61739;-65
2023/10/03 00:08:20;;;;;;;12.60;5.90;;;;;;;13.62;100.00;100390.49;104305;1256;60542;-64
2023/10/03 00:10:47;;;;;;;7.00;4.30;;;;;;;13.60;100.00;100389.52;104290;1270;73583;-65
2023/10/03 00:13:17;;;;;;;7.10;4.50;;;;;;;13.59;100.00;100391.51;104291;1257;69753;-65
2023/10/03 00:15:45;;;;;;;7.90;4.30;;;;;;;13.57;100.00;100393.38;104485;1256;72511;-65
2023/10/03 00:18:13;;;;;;;8.50;5.00;;;;;;;13.55;100.00;100394.15;104315;1257;60828;-64
2023/10/03 00:20:41;;;;;;;7.50;5.10;;;;;;;13.53;100.00;100390.05;104343;1256;60456;-64
2023/10/03 00:23:09;;;;;;;;;;;;;;;13.52;100.00;100393.08;104467;1256;74594;-64
2023/10/03 00:25:38;;;;;;;5.80;4.00;;;;;;;13.50;100.00;100389.98;106406;1253;69467;-65
2023/10/03 00:28:06;;;;;;;6.40;4.70;;;;;;;13.46;100.00;100390.52;104346;1270;71471;-64
2023/10/03 00:30:35;;;;;;;8.20;4.70;;;;;;;13.44;100.00;100391.30;104287;1253;61409;-64
2023/10/03 00:33:04;;;;;;;8.20;4.80;;;;;;;13.41;100.00;100390.37;104324;1251;60520;-68
2023/10/03 00:35:34;;;;;;;10.50;5.00;;;;;;;13.37;100.00;100392.33;104654;1269;73657;-64
2023/10/03 00:38:09;;;;;;;10.50;5.00;;;;;;;13.31;100.00;100393.05;104493;1263;69703;-64
2023/10/03 00:40:38;;;;;;;8.70;4.80;;;;;;;13.25;100.00;100390.11;104460;1253;72528;-64
2023/10/03 00:43:05;;;;;;;9.10;4.90;;;;;;;13.22;100.00;100392.71;104310;1251;62439;-64
2023/10/03 00:45:33;;;;;;;8.90;5.20;;;;;;;13.20;100.00;100392.27;104451;1251;60742;-64
2023/10/03 00:48:02;;;;;;;7.30;4.70;;;;;;;13.18;100.00;100391.80;104559;1253;73617;-65
2023/10/03 00:50:31;;;;;;;8.40;4.30;;;;;;;13.17;100.00;100390.81;104261;1273;69213;-64
2023/10/03 00:53:09;;;;;;;8.70;5.40;;;;;;;13.16;100.00;100396.33;104319;1256;71361;-65
2023/10/03 00:55:41;;;;;;;;;;;;;;;13.18;100.00;100394.64;104533;1258;61538;-64
2023/10/03 01:00:49;;;;;;;8.50;4.30;;;;;;;13.17;100.00;100394.50;104443;1257;74478;-64
2023/10/03 01:03:49;;;;;;;7.80;4.40;;;;;;;13.15;100.00;100396.17;104336;1271;69131;-65
2023/10/03 01:06:20;;;;;;;7.60;5.20;;;;;;;13.14;100.00;100394.44;104360;1251;72946;-65
2023/10/03 01:08:51;;;;;;;8.30;5.20;;;;;;;13.14;100.00;100391.79;104361;1255;62393;-63
2023/10/03 01:11:20;;;;;;;8.50;5.10;;;;;;;13.15;100.00;100390.72;104398;1256;60586;-64
2023/10/03 01:13:49;;;;;;;7.40;4.20;;;;;;;13.15;100.00;100393.20;104391;1272;73528;-63
2023/10/03 01:16:27;;;;;;;6.40;4.60;;;;;;;13.13;100.00;100393.07;104290;1272;69576;-63
2023/10/03 01:18:59;;;;;;;9.10;5.20;;;;;;;13.16;100.00;100391.71;104430;1269;73367;-65
2023/10/03 01:21:28;;;;;;;8.00;4.40;;;;;;;13.17;100.00;100387.43;104311;1256;61522;-65
2023/10/03 01:23:56;;;;;;;7.30;4.60;;;;;;;13.15;100.00;100384.54;104288;1254;60527;-64
2023/10/03 01:26:24;;;;;;;7.70;4.70;;;;;;;13.11;100.00;100385.23;104307;1256;73630;-65
2023/10/03 01:28:52;;;;;;;7.80;5.00;;;;;;;13.09;100.00;100386.04;104268;1257;69169;-65
2023/10/03 01:31:21;;;;;;;9.90;5.10;;;;;;;13.08;100.00;100382.23;106442;1251;72779;-64
2023/10/03 01:33:49;;;;;;;8.50;4.60;;;;;;;13.06;100.00;100382.98;108462;1251;61618;-65
2023/10/03 01:36:18;;;;;;;;;;;;;;;13.02;100.00;100381.92;105444;1250;60523;-64
2023/10/03 01:38:46;;;;;;;10.50;4.70;;;;;;;12.97;100.00;100380.04;105359;1253;74306;-65
2023/10/03 01:41:14;;;;;;;7.00;4.40;;;;;;;12.97;100.00;100374.58;108476;1250;69147;-65
2023/10/03 01:43:43;;;;;;;7.80;4.60;;;;;;;13.03;100.00;100372.38;108513;1253;72401;-64
2023/10/03 01:46:12;;;;;;;;;;;;;;;13.07;100.00;100374.48;107486;1255;60383;-63
2023/10/03 01:48:42;;;;;;;7.00;3.80;;;;;;;13.10;100.00;100373.88;104328;1256;60594;-63
2023/10/03 01:51:11;;;;;;;7.20;4.70;;;;;;;13.11;100.00;100373.48;104683;1257;74452;-63
2023/10/03 01:53:40;;;;;;;;;;;;;;;13.12;100.00;100375.02;104254;1272;69635;-61
2023/10/03 01:56:09;;;;;;;5.60;4.30;;;;;;;13.10;100.00;100375.44;104802;1256;72871;-63
2023/10/03 01:58:37;;;;;;;8.70;5.00;;;;;;;13.06;100.00;100378.42;104313;1256;61757;-62
2023/10/03 02:01:05;;;;;;;;;;;;;;;13.00;100.00;100370.04;104308;1259;59687;-61
2023/10/03 02:03:34;;;;;;;9.50;5.20;;;;;;;13.01;100.00;100374.02;104419;1256;74037;-62
2023/10/03 02:06:06;;;;;;;9.70;4.90;;;;;;;12.99;100.00;100372.88;104373;1257;68139;-61
2023/10/03 02:08:34;;;;;;;10.10;5.10;;;;;;;12.99;100.00;100372.70;104346;1264;72902;-61
2023/10/03 02:11:06;;;;;;;10.80;4.80;;;;;;;12.98;100.00;100370.11;104556;1254;61507;-61
2023/10/03 02:13:34;;;;;;;7.00;4.60;;;;;;;12.95;100.00;100373.06;104427;1257;60558;-61
2023/10/03 02:16:02;;;;;;;8.00;4.80;;;;;;;12.92;100.00;100373.39;104403;1256;73676;-62
2023/10/03 02:18:33;;;;;;;8.70;5.00;;;;;;;12.89;100.00;100371.54;104279;1257;70115;-62
2023/10/03 02:21:01;;;;;;;10.70;4.90;;;;;;;12.91;100.00;100370.92;104377;1251;72756;-62
2023/10/03 02:23:30;;;;;;;13.00;5.10;;;;;;;12.92;100.00;100370.91;104371;1257;61076;-61
2023/10/03 02:26:10;;;;;;;10.60;5.70;;;;;;;12.92;100.00;100372.67;104483;1250;60507;-62
2023/10/03 02:28:40;;;;;;;8.10;4.90;;;;;;;12.91;100.00;100376.92;104304;1273;74268;-62
2023/10/03 02:31:09;;;;;;;7.40;4.90;;;;;;;12.87;100.00;100378.50;104304;1269;69076;-62
2023/10/03 02:33:40;;;;;;;13.30;5.20;;;;;;;12.86;100.00;100379.77;104278;1275;73342;-62
2023/10/03 02:36:10;;;;;;;9.60;4.30;;;;;;;12.90;100.00;100380.14;104350;1253;62327;-61
2023/10/03 02:38:38;;;;;;;9.00;5.50;;;;;;;12.89;100.00;100379.98;104316;1256;60491;-62
2023/10/03 02:41:07;;;;;;;8.50;5.00;;;;;;;12.86;100.00;100379.06;104248;1272;74937;-62
2023/10/03 02:43:39;;;;;;;10.20;5.20;;;;;;;12.84;100.00;100381.21;104506;1256;69193;-61
2023/10/03 02:46:11;;;;;;;8.50;5.20;;;;;;;12.80;100.00;100380.89;104264;1275;71471;-62
2023/10/03 02:48:44;;;;;;;9.50;5.10;;;;;;;12.79;100.00;100381.95;104221;1257;61765;-62
2023/10/03 02:51:14;;;;;;;7.90;4.80;;;;;;;12.79;100.00;100378.98;104439;1256;60094;-61
2023/10/03 02:53:43;;;;;;;8.30;4.70;;;;;;;12.79;100.00;100377.24;104329;1259;73691;-61
2023/10/03 02:56:14;;;;;;;8.70;5.30;;;;;;;12.78;100.00;100376.20;104285;1259;70496;-61
2023/10/03 02:58:43;;;;;;;8.20;4.80;;;;;;;12.80;100.00;100379.12;104397;1254;72508;-61
2023/10/03 03:01:11;;;;;;;11.10;5.20;;;;;;;12.81;100.00;100375.40;104312;1261;61745;-61
2023/10/03 03:03:39;;;;;;;8.30;4.90;;;;;;;12.81;100.00;100377.85;104337;1252;60825;-61
2023/10/03 03:06:11;;;;;;;9.00;4.40;;;;;;;12.80;100.00;100380.89;104298;1273;73051;-62
2023/10/03 03:08:40;;;;;;;9.10;5.30;;;;;;;12.80;100.00;100383.17;104328;1264;69033;-61
2023/10/03 03:11:11;;;;;;;7.80;4.90;;;;;;;12.81;100.00;100383.64;104265;1273;72580;-61
2023/10/03 03:13:39;;;;;;;11.60;5.20;;;;;;;12.83;100.00;100387.64;104345;1257;61420;-61
2023/10/03 03:16:07;;;;;;;;;;;;;;;12.84;100.00;100388.98;104302;1251;60456;-62
2023/10/03 03:18:41;;;;;;;9.60;5.20;;;;;;;12.86;100.00;100389.25;104264;1257;73600;-62
2023/10/03 03:21:14;;;;;;;10.10;4.80;;;;;;;12.88;100.00;100388.31;104300;1251;69176;-61
2023/10/03 03:23:55;;;;;;;8.40;4.50;;;;;;;12.86;100.00;100388.72;104407;1257;72338;-61
2023/10/03 03:26:36;;;;;;;8.80;5.00;;;;;;;12.88;100.00;100387.11;104394;1251;62333;-61
2023/10/03 03:29:58;;;;;;;8.00;4.90;;;;;;;12.88;100.00;100384.95;104510;1256;59688;-61
2023/10/03 03:32:03;;;;;;;7.50;5.00;;;;;;;12.89;100.00;100378.60;104323;1251;72599;-63
2023/10/03 03:34:31;;;;;;;9.90;5.00;;;;;;;12.91;100.00;100381.86;104412;1269;69114;-62
2023/10/03 03:37:20;;;;;;;;;;;;;;;12.90;100.00;100377.98;104429;1254;72853;-61
2023/10/03 03:39:57;;;;;;;8.20;5.00;;;;;;;12.91;100.00;100375.89;104411;1251;63294;-62
2023/10/03 03:42:28;;;;;;;8.50;4.70;;;;;;;12.90;100.00;100374.52;104349;1257;60144;-62
2023/10/03 03:44:56;;;;;;;6.50;4.70;;;;;;;12.87;100.00;100377.44;104474;1275;74024;-62
2023/10/03 03:47:24;;;;;;;9.20;5.20;;;;;;;12.90;100.00;100381.02;104358;1275;70004;-61
2023/10/03 03:49:52;;;;;;;8.40;5.10;;;;;;;12.87;100.00;100381.31;104299;1256;73299;-62
2023/10/03 03:52:21;;;;;;;;;;;;;;;12.84;100.00;100376.84;104332;1251;61385;-62
2023/10/03 03:54:49;;;;;;;9.00;4.90;;;;;;;12.84;100.00;100376.13;104381;1255;59666;-61
2023/10/03 03:57:17;;;;;;;9.30;4.40;;;;;;;12.83;100.00;100378.83;104335;1273;73668;-62
2023/10/03 03:59:47;;;;;;;6.60;4.30;;;;;;;12.80;100.00;100376.49;104381;1257;69745;-63
2023/10/03 04:02:15;;;;;;;12.20;5.00;;;;;;;12.78;100.00;100375.52;104430;1257;72872;-63
2023/10/03 04:04:42;;;;;;;5.40;3.90;;;;;;;12.79;100.00;100374.56;104469;1254;61571;-63
2023/10/03 04:07:11;;;;;;;7.00;4.80;;;;;;;12.80;100.00;100369.98;104344;1255;59978;-62
2023/10/03 04:09:39;;;;;;;10.50;5.40;;;;;;;12.80;100.00;100366.45;104257;1251;74460;-65
2023/10/03 04:12:06;;;;;;;;;;;;;;;12.79;100.00;100366.84;104381;1270;70050;-66
2023/10/03 04:14:34;;;;;;;8.50;5.20;;;;;;;12.77;100.00;100368.52;104398;1252;72403;-66
2023/10/03 04:17:03;;;;;;;9.60;5.10;;;;;;;12.73;100.00;100366.73;104277;1256;61423;-66
2023/10/03 04:19:31;;;;;;;12.70;5.60;;;;;;;12.70;100.00;100371.27;104320;1254;60494;-66
2023/10/03 04:22:00;;;;;;;10.10;5.70;;;;;;;12.68;100.00;100371.50;104300;1257;73569;-66
2023/10/03 04:24:29;;;;;;;13.00;6.10;;;;;;;12.66;100.00;100371.75;104366;1267;69659;-67
2023/10/03 04:27:02;;;;;;;11.40;5.70;;;;;;;12.67;100.00;100380.87;104308;1255;72474;-66
2023/10/03 04:29:33;;;;;;;9.90;5.60;;;;;;;12.68;100.00;100378.38;104457;1255;62331;-68
2023/10/03 04:32:01;;;;;;;11.50;6.30;;;;;;;12.68;100.00;100384.55;104286;1256;60626;-66
2023/10/03 04:34:29;;;;;;;14.20;5.70;;;;;;;12.67;100.00;100387.02;104449;1269;72975;-67
2023/10/03 04:36:57;;;;;;;;;;;;;;;12.70;100.00;100388.50;104259;1275;69304;-68
2023/10/03 04:39:25;;;;;;;9.80;5.40;;;;;;;12.72;100.00;100391.73;104301;1275;72251;-69
2023/10/03 04:41:53;;;;;;;10.00;5.10;;;;;;;12.73;100.00;100391.38;104304;1256;61379;-68
2023/10/03 04:44:21;;;;;;;11.00;6.20;;;;;;;12.76;100.00;100394.58;104342;1252;60503;-70
2023/10/03 04:46:49;;;;;;;10.60;5.80;;;;;;;12.78;100.00;100395.04;104345;1257;73855;-69
2023/10/03 04:49:17;;;;;;;12.50;5.70;;;;;;;12.79;100.00;100393.04;104335;1274;69246;-70
2023/10/03 04:51:47;;;;;;;11.80;5.70;;;;;;;12.83;100.00;100395.87;104576;1254;72644;-68
2023/10/03 04:54:16;;;;;;;8.70;5.50;;;;;;;12.81;100.00;100398.77;104486;1257;62422;-68
2023/10/03 04:56:45;;;;;;;11.30;5.50;;;;;;;12.77;100.00;100396.47;104418;1257;60768;-67
2023/10/03 04:59:13;;;;;;;11.50;5.90;;;;;;;12.77;100.00;100395.27;104353;1274;73618;-68
2023/10/03 05:01:43;;;;;;;8.50;5.20;;;;;;;12.81;100.00;100396.49;104499;1261;69299;-70
2023/10/03 05:04:14;;;;;;;11.70;5.80;;;;;;;12.87;100.00;100398.73;104315;1273;72752;-68
2023/10/03 05:06:47;;;;;;;9.00;5.40;;;;;;;12.96;100.00;100397.83;104380;1255;60938;-69
2023/10/03 05:09:17;;;;;;;9.20;5.50;;;;;;;13.00;100.00;100401.73;104355;1256;60449;-60
2023/10/03 05:11:48;;;;;;;8.00;5.60;;;;;;;13.01;100.00;100400.77;104537;1257;74512;-60
2023/10/03 05:14:18;;;;;;;10.70;5.90;;;;;;;13.09;100.00;100401.54;104441;1273;69328;-61
2023/10/03 05:16:50;;;;;;;14.80;7.20;;;;;;;13.15;100.00;100405.33;104219;1260;72905;-62
2023/10/03 05:19:21;;;;;;;8.60;5.40;;;;;;;13.20;100.00;100405.45;104307;1256;61574;-59
2023/10/03 05:21:49;;;;;;;9.90;6.20;;;;;;;13.25;100.00;100406.30;104469;1256;60879;-60
2023/10/03 05:24:16;;;;;;;;;;;;;;;13.30;100.00;100403.32;104422;1256;74065;-61
2023/10/03 05:26:44;;;;;;;10.90;5.70;;;;;;;13.37;100.00;100406.02;104380;1261;69410;-61
2023/10/03 05:29:12;;;;;;;9.80;5.30;;;;;;;13.42;100.00;100407.60;104319;1257;72719;-62
2023/10/03 05:31:41;;;;;;;13.50;6.40;;;;;;;13.49;100.00;100407.83;104269;1251;61339;-62
2023/10/03 05:34:10;;;;;;;14.00;6.50;;;;;;;13.60;100.00;100408.92;104416;1256;59939;-62
2023/10/03 05:36:40;;;;;;;13.90;5.70;;;;;;;13.71;100.00;100408.48;108590;1250;74028;-63
2023/10/03 05:42:26;;;;;;;16.30;6.70;;;;;;;13.92;100.00;100411.40;101288;1293;601464;-62
2023/10/03 05:44:54;;;;;;;10.60;5.80;;;;;;;13.98;100.00;100420.63;103781;1269;61516;-62
2023/10/03 05:47:22;;;;;;;9.70;5.90;;;;;;;14.07;100.00;100420.42;103540;1274;59713;-62
2023/10/03 05:49:50;;;;;;;;;;;;;;;14.18;100.00;100413.91;103628;1270;71925;-62
2023/10/03 05:52:18;;;;;;;13.60;6.30;;;;;;;14.26;100.00;100413.24;103575;1273;69720;-64
2023/10/03 05:54:46;;;;;;;11.90;6.20;;;;;;;14.34;100.00;100413.94;103478;1270;72884;-63
2023/10/03 05:57:15;;;;;;;12.40;6.40;;;;;;;14.42;100.00;100414.77;103845;1268;265630;-64
2023/10/03 05:59:45;;;;;;;12.80;7.10;;;;;;;14.50;100.00;100414.04;103877;1268;60184;-63
2023/10/03 06:02:12;;;;;;;9.70;6.10;;;;;;;14.56;100.00;100411.50;103925;1269;71707;-63
2023/10/03 06:06:33;;;;;;;15.10;6.90;;;;;;;14.15;100.00;100415.27;101304;1303;601428;-66
2023/10/03 06:09:02;;;;;;;11.20;6.40;;;;;;;14.64;100.00;100406.71;103635;1270;60690;-63
2023/10/03 06:11:30;;;;;;;13.80;6.80;;;;;;;14.77;100.00;100407.17;103912;1267;59635;-62
2023/10/03 06:13:58;;;;;;;13.10;6.60;;;;;;;14.90;100.00;100406.20;103721;1270;71686;-64
2023/10/03 06:16:29;;;;;;;;;;;;;;;15.01;100.00;100405.13;103591;1270;69251;-63
2023/10/03 06:18:57;;;;;;;12.90;6.30;;;;;;;15.10;100.00;100407.35;103702;1268;72718;-63
2023/10/03 06:21:25;;;;;;;9.90;6.20;;;;;;;15.24;100.00;100410.73;103852;1276;62766;-64
2023/10/03 06:23:53;;;;;;;11.70;6.30;;;;;;;15.34;100.00;100410.56;104233;1264;59227;-63
2023/10/03 06:26:21;;;;;;;16.60;7.20;;;;;;;15.45;100.00;100405.23;106347;1262;72059;-64
2023/10/03 06:28:49;;;;;;;12.10;7.10;;;;;;;15.53;100.00;100404.83;104678;1267;69140;-63
2023/10/03 06:31:18;;;;;;;17.40;7.80;;;;;;;15.62;100.00;100402.42;104059;1270;71924;-62
2023/10/03 06:33:46;;;;;;;14.40;6.60;;;;;;;15.71;100.00;100401.09;104227;1265;61339;-63
2023/10/03 06:36:16;;;;;;;12.90;6.30;;;;;;;15.81;100.00;100399.15;104386;1268;60057;-63
2023/10/03 06:38:43;;;;;;;12.40;7.50;;;;;;;15.92;100.00;100405.33;104344;1264;72915;-63
2023/10/03 06:41:17;;;;;;;15.50;6.80;;;;;;;16.00;100.00;100404.38;107006;1263;69255;-63
2023/10/03 06:43:45;;;;;;;12.90;6.70;;;;;;;16.11;100.00;100403.25;106215;1264;72958;-61
2023/10/03 06:46:15;;;;;;;;;;;;;;;16.18;100.00;100404.28;104122;1269;61733;-60
2023/10/03 06:48:46;;;;;;;11.40;6.50;;;;;;;16.26;100.00;100405.45;103916;1267;59777;-63
2023/10/03 06:51:17;;;;;;;16.00;6.40;;;;;;;16.36;100.00;100403.48;104595;1264;73288;-64
2023/10/03 06:53:47;;;;;;;13.10;6.30;;;;;;;16.46;100.00;100407.02;104002;1269;69287;-63
2023/10/03 06:56:16;;;;;;;12.60;6.20;;;;;;;16.54;100.00;100400.70;103866;1264;74298;-63
2023/10/03 06:58:44;;;;;;;;;;;;;;;16.62;100.00;100399.23;103887;1269;61362;-63
2023/10/03 07:01:12;;;;;;;12.30;6.60;;;;;;;16.66;100.00;100402.33;104410;1264;59466;-64
2023/10/03 07:03:42;;;;;;;;;;;;;;;16.75;100.00;100400.60;104057;1269;72784;-62
2023/10/03 07:06:12;;;;;;;12.70;5.90;;;;;;;16.83;100.00;100400.88;104083;1264;68071;-62
2023/10/03 07:08:41;;;;;;;13.30;7.00;;;;;;;16.91;100.00;100404.70;104056;1267;74554;-62
2023/10/03 07:11:16;;;;;;;10.90;5.80;;;;;;;17.00;100.00;100405.46;104275;1263;61545;-62
2023/10/03 07:13:44;;;;;;;11.70;5.90;;;;;;;17.05;100.00;100403.39;103930;1264;59712;-63
2023/10/03 07:16:12;;;;;;;10.50;6.00;;;;;;;17.15;100.00;100401.02;104490;1260;76708;-62
2023/10/03 07:18:41;;;;;;;10.80;6.00;;;;;;;17.25;100.00;100402.55;105941;1257;72214;-62
2023/10/03 07:21:09;;;;;;;15.00;6.00;;;;;;;17.33;100.00;100402.08;104567;1266;75230;-61
2023/10/03 07:23:39;;;;;;;9.50;6.10;;;;;;;17.43;100.00;100403.97;104759;1264;65619;-62
2023/10/03 07:26:11;;;;;;;10.40;5.30;;;;;;;17.56;100.00;100401.81;104433;1251;59867;-62
2023/10/03 07:28:40;;;;;;;11.60;5.70;;;;;;;17.67;97.88;100400.80;104566;1256;72755;-66
2023/10/03 07:31:13;;;;;;;10.20;5.60;;;;;;;17.78;93.87;100401.39;104796;1254;68024;-66
2023/10/03 07:33:43;;;;;;;10.60;6.10;;;;;;;17.89;93.72;100397.88;104770;1255;74614;-66
2023/10/03 07:36:12;;;;;;;13.30;6.70;;;;;;;18.01;93.20;100397.86;106999;1254;60494;-67
2023/10/03 07:38:40;;;;;;;9.10;5.90;;;;;;;18.13;91.48;100392.36;108424;1251;60085;-65
2023/10/03 07:41:09;;;;;;;14.90;5.70;;;;;;;18.26;86.53;100396.83;104730;1254;72841;-67
2023/10/03 07:43:36;;;;;;;;;;;;;;;18.40;85.75;100394.21;104739;1258;69020;-67
2023/10/03 07:46:04;;;;;;;10.30;5.20;;;;;;;18.52;85.84;100390.61;104605;1260;73315;-66
2023/10/03 07:48:32;;;;;;;11.30;5.50;;;;;;;18.62;87.20;100390.84;104407;1252;61655;-67
2023/10/03 07:51:05;;;;;;;;;;;;;;;18.76;87.50;100393.52;104649;1257;59743;-65
2023/10/03 07:53:36;;;;;;;9.20;5.20;;;;;;;18.84;84.43;100396.74;104477;1257;72812;-67
2023/10/03 07:56:05;;;;;;;10.70;5.70;;;;;;;18.92;83.51;100393.02;104772;1254;69043;-66
2023/10/03 07:58:33;;;;;;;9.60;5.30;;;;;;;19.01;81.68;100393.08;104695;1254;72273;-64
2023/10/03 08:01:01;;;;;;;10.80;5.40;;;;;;;19.12;79.69;100397.39;104609;1254;62349;-65
2023/10/03 08:03:29;;;;;;;9.90;4.70;;;;;;;19.19;79.11;100395.11;104661;1257;59794;-66
2023/10/03 08:05:58;;;;;;;12.50;6.00;;;;;;;19.24;79.06;100401.91;104568;1260;75173;-66
2023/10/03 08:08:27;;;;;;;12.10;5.60;;;;;;;19.28;77.52;100401.30;104254;1270;69293;-65
2023/10/03 08:10:58;;;;;;;12.30;5.30;;;;;;;19.35;76.98;100398.36;104275;1257;76893;-66
2023/10/03 08:13:26;;;;;;;8.90;5.50;;;;;;;19.39;74.96;100398.02;104338;1254;64093;-67
2023/10/03 08:15:53;;;;;;;;;;;;;;;19.43;75.24;100393.65;104337;1265;63635;-67
2023/10/03 08:18:21;;;;;;;8.00;4.70;;;;;;;19.52;73.97;100395.73;104369;1251;76932;-65
2023/10/03 08:20:53;;;;;;;6.70;4.50;;;;;;;19.60;72.81;100392.54;104543;1251;72079;-66
2023/10/03 08:23:22;;;;;;;8.70;5.20;;;;;;;19.69;71.82;100394.23;104309;1251;76398;-66
2023/10/03 08:25:50;;;;;;;9.30;5.00;;;;;;;19.77;71.28;100389.06;104434;1261;62205;-66
2023/10/03 08:28:20;;;;;;;;;;;;;;;19.83;70.26;100391.71;104377;1257;63481;-65
2023/10/03 08:30:50;;;;;;;7.20;4.90;;;;;;;19.83;68.73;100390.07;104744;1261;76148;-67
2023/10/03 08:33:22;;;;;;;7.00;4.70;;;;;;;19.85;69.42;100385.70;104642;1251;73186;-66
2023/10/03 08:35:52;;;;;;;7.40;5.00;;;;;;;19.90;68.41;100384.09;105206;1251;77871;-65
2023/10/03 08:38:20;;;;;;;9.20;5.40;;;;;;;19.97;67.37;100382.55;105367;1254;62857;-66
2023/10/03 08:40:51;;;;;;;13.90;5.10;;;;;;;20.02;66.79;100377.38;104731;1257;63212;-64
2023/10/03 08:43:25;;;;;;;9.00;5.20;;;;;;;20.07;67.00;100379.91;104710;1263;75800;-64
2023/10/03 08:45:57;;;;;;;8.10;5.50;;;;;;;20.14;66.16;100374.20;104505;1254;69680;-64
2023/10/03 08:48:25;;;;;;;9.00;5.80;;;;;;;20.19;65.40;100370.83;104485;1257;76776;-65
2023/10/03 08:51:03;;;;;;;7.50;5.20;;;;;;;20.25;64.63;100370.59;104441;1270;64556;-65
2023/10/03 08:53:31;;;;;;;;;;;;;;;20.29;63.92;100371.42;104688;1253;59813;-65
2023/10/03 08:56:01;;;;;;;7.10;5.10;;;;;;;20.32;61.98;100369.00;104540;1264;72968;-66
2023/10/03 08:58:30;;;;;;;10.30;5.40;;;;;;;20.37;62.39;100358.13;104550;1257;68327;-66
2023/10/03 09:00:59;;;;;;;7.40;5.40;;;;;;;20.43;61.66;100354.15;104505;1254;72180;-66
2023/10/03 09:03:46;;;;;;;7.10;4.50;;;;;;;20.48;61.96;100354.14;104701;1251;61269;-66
2023/10/03 09:06:23;;;;;;;9.30;5.60;;;;;;;20.53;60.71;100350.63;104579;1257;59728;-64
2023/10/03 09:09:07;;;;;;;9.50;5.30;;;;;;;20.56;59.44;100350.87;104749;1264;76118;-66
2023/10/03 09:11:43;;;;;;;8.30;4.70;;;;;;;20.62;58.69;100349.59;104572;1258;73166;-65
2023/10/03 09:14:20;;;;;;;8.30;5.70;;;;;;;20.68;59.00;100346.50;104667;1256;72848;-65
2023/10/03 09:16:50;;;;;;;9.10;5.80;;;;;;;20.76;58.23;100341.30;104291;1260;60170;-66
2023/10/03 09:19:24;;;;;;;11.40;5.80;;;;;;;20.86;57.96;100338.44;104473;1259;59830;-66
2023/10/03 09:21:52;;;;;;;11.00;6.10;;;;;;;20.91;56.57;100338.91;104334;1260;71915;-65
2023/10/03 09:24:21;;;;;;;;;;;;;;;20.92;56.09;100335.79;104427;1257;69035;-68
2023/10/03 09:26:54;;;;;;;11.80;5.10;;;;;;;20.97;55.03;100336.48;104478;1260;72520;-68
2023/10/03 09:29:29;;;;;;;8.80;5.60;;;;;;;21.02;56.22;100335.76;104437;1254;62404;-63
2023/10/03 09:32:17;;;;;;;14.00;6.20;;;;;;;21.07;55.01;100335.41;104482;1254;59724;-67
2023/10/03 09:34:46;;;;;;;7.60;5.60;;;;;;;21.13;54.71;100340.85;104810;1254;72781;-65
2023/10/03 09:37:17;;;;;;;9.90;5.70;;;;;;;21.16;54.58;100344.68;104511;1254;68082;-64
2023/10/03 09:39:51;;;;;;;8.30;6.00;;;;;;;21.20;54.18;100342.27;106151;1254;73455;-63
2023/10/03 09:42:23;;;;;;;13.10;5.90;;;;;;;21.25;54.02;100345.08;104484;1257;60324;-63
2023/10/03 09:44:57;;;;;;;10.00;5.90;;;;;;;21.33;53.81;100345.52;104596;1254;63863;-62
2023/10/03 09:47:32;;;;;;;9.00;5.80;;;;;;;21.46;54.20;100341.94;104786;1259;73790;-63
2023/10/03 09:50:08;;;;;;;8.90;6.20;;;;;;;21.59;54.45;100335.37;105926;1253;69105;-64
2023/10/03 09:52:44;;;;;;;9.10;5.80;;;;;;;21.72;54.05;100330.78;104969;1256;71400;-63
2023/10/03 09:55:26;;;;;;;7.40;6.00;;;;;;;21.85;53.78;100332.10;104531;1254;59803;-63
2023/10/03 09:57:59;;;;;;;9.80;5.50;;;;;;;21.99;53.50;100326.36;104322;1254;60326;-63
2023/10/03 10:00:40;;;;;;;9.50;6.00;;;;;;;22.07;52.86;100323.16;104284;1276;72807;-64
2023/10/03 10:03:11;;;;;;;8.10;5.40;;;;;;;22.16;52.11;100323.91;104338;1270;69027;-62
2023/10/03 10:05:50;;;;;;;8.00;5.40;;;;;;;22.25;51.15;100323.40;104525;1251;76873;-64
2023/10/03 10:08:27;;;;;;;9.70;6.00;;;;;;;22.33;51.09;100319.55;104781;1256;59865;-62
2023/10/03 10:11:10;;;;;;;9.10;6.00;;;;;;;22.42;50.36;100312.94;104419;1257;63502;-63
2023/10/03 10:13:44;;;;;;;10.40;6.10;;;;;;;22.51;50.13;100314.81;104742;1254;72770;-63
2023/10/03 10:16:20;;;;;;;6.60;5.00;;;;;;;22.52;49.78;100312.24;104438;1252;69062;-63
2023/10/03 10:18:49;;;;;;;7.50;4.90;;;;;;;22.53;49.75;100315.88;104514;1257;72158;-63
2023/10/03 10:21:20;;;;;;;9.20;6.40;;;;;;;22.50;49.62;100314.02;104574;1263;62441;-63
2023/10/03 10:24:15;;;;;;;6.20;5.40;;;;;;;22.50;50.59;100312.42;104615;1251;60530;-63
2023/10/03 10:26:48;;;;;;;7.20;4.90;;;;;;;22.49;50.56;100310.14;104417;1254;74134;-62
2023/10/03 10:29:20;;;;;;;7.60;5.10;;;;;;;22.45;50.07;100307.48;104425;1269;69789;-63
2023/10/03 10:31:57;;;;;;;9.00;5.60;;;;;;;22.41;50.12;100301.95;104504;1254;72474;-63
2023/10/03 10:34:46;;;;;;;7.80;5.30;;;;;;;22.39;50.00;100301.35;104435;1270;60592;-65
2023/10/03 10:37:18;;;;;;;9.00;5.40;;;;;;;22.31;50.06;100300.39;104727;1253;60562;-63
2023/10/03 10:40:17;;;;;;;8.20;5.00;;;;;;;22.24;49.73;100300.64;106901;1254;74077;-64
2023/10/03 10:42:55;;;;;;;10.50;5.20;;;;;;;22.21;49.92;100297.29;104735;1256;69238;-65
2023/10/03 10:45:23;;;;;;;9.40;5.10;;;;;;;22.19;50.08;100296.35;104586;1256;71410;-65
2023/10/03 10:47:54;;;;;;;8.10;5.00;;;;;;;22.20;50.29;100295.59;104492;1257;60513;-63
2023/10/03 10:50:27;;;;;;;9.10;5.40;;;;;;;22.16;50.12;100292.11;104634;1251;61090;-63
2023/10/03 10:52:57;;;;;;;10.40;5.80;;;;;;;22.16;49.79;100293.36;104674;1258;74313;-64
2023/10/03 10:55:25;;;;;;;7.10;5.20;;;;;;;22.17;49.71;100287.92;104351;1255;70021;-63
2023/10/03 10:58:12;;;;;;;7.40;5.10;;;;;;;22.19;49.72;100283.73;104448;1270;72417;-63
2023/10/03 11:00:40;;;;;;;9.20;5.30;;;;;;;22.21;50.01;100282.27;104471;1257;60517;-63
2023/10/03 11:03:08;;;;;;;8.70;5.50;;;;;;;22.25;49.62;100279.63;104927;1253;60629;-64
2023/10/03 11:05:55;;;;;;;6.30;5.50;;;;;;;22.27;49.28;100283.02;104747;1253;73600;-64
2023/10/03 11:08:23;;;;;;;12.50;5.50;;;;;;;22.35;49.73;100275.80;104494;1253;69085;-63
2023/10/03 11:10:52;;;;;;;8.50;5.40;;;;;;;22.41;49.34;100277.98;104485;1253;72364;-64
2023/10/03 11:13:20;;;;;;;8.60;6.10;;;;;;;22.42;49.09;100277.38;104411;1257;60555;-64
2023/10/03 11:15:53;;;;;;;10.10;5.10;;;;;;;22.46;48.71;100277.77;104514;1256;60555;-63
2023/10/03 11:18:28;;;;;;;5.70;4.50;;;;;;;22.49;48.40;100274.05;104267;1270;73714;-62
2023/10/03 11:20:57;;;;;;;6.70;5.20;;;;;;;22.59;48.79;100271.88;104303;1257;69616;-64
2023/10/03 11:23:26;;;;;;;8.10;4.90;;;;;;;22.69;48.39;100263.47;104244;1274;72443;-64
2023/10/03 11:25:55;;;;;;;7.50;5.30;;;;;;;22.81;48.03;100263.41;104479;1270;60576;-63
2023/10/03 11:28:28;;;;;;;7.10;5.50;;;;;;;22.92;47.92;100254.61;104448;1253;60546;-65
2023/10/03 11:31:09;;;;;;;9.30;4.90;;;;;;;23.04;47.60;100253.41;104246;1257;73664;-64
2023/10/03 11:33:43;;;;;;;7.80;5.20;;;;;;;23.12;46.67;100248.80;104484;1267;69032;-64
2023/10/03 11:36:12;;;;;;;7.60;5.40;;;;;;;23.10;46.33;100249.47;104688;1253;73213;-66
2023/10/03 11:38:45;;;;;;;8.80;5.80;;;;;;;23.08;46.72;100241.67;104898;1267;63087;-68